Time;durP1;ratioP1;P1;durP2;ratioP2;P2;SDS_P1;SDS_P2;PMS_P1;PMS_P2;Temp;Humidity;BMP_temperature;BMP_pressure;BME280_temperature;BME280_humidity;BME280_pressure;Samples;Min_cycle;Max_cycle;Signal;HPM_P1;HPM_P2
2022/09/16 00:01:42;;;;;;;2.50;1.20;;;11.50;99.90;;;;;;5073189;28;20443;-66
2022/09/16 00:04:09;;;;;;;6.63;1.85;;;11.50;99.90;;;;;;5073185;28;20450;-66
2022/09/16 00:06:36;;;;;;;1.73;1.10;;;11.40;99.90;;;;;;5072868;28;20708;-66
2022/09/16 00:09:03;;;;;;;3.90;1.30;;;11.40;99.90;;;;;;5072783;28;20447;-67
2022/09/16 00:11:34;;;;;;;2.40;1.30;;;11.40;99.90;;;;;;5073211;28;20439;-66
2022/09/16 00:14:01;;;;;;;3.00;1.50;;;11.40;99.90;;;;;;5073195;28;20443;-66
2022/09/16 00:16:29;;;;;;;3.80;1.47;;;11.40;99.90;;;;;;5073244;28;20451;-67
2022/09/16 00:18:59;;;;;;;6.87;1.33;;;11.40;99.90;;;;;;5073215;28;20466;-66
2022/09/16 00:21:27;;;;;;;2.50;1.10;;;11.40;99.90;;;;;;5073021;28;20443;-66
2022/09/16 00:23:55;;;;;;;3.20;1.57;;;11.40;99.90;;;;;;5072997;28;20451;-66
2022/09/16 00:26:22;;;;;;;1.83;1.03;;;11.40;99.90;;;;;;5075564;28;20977;-66
2022/09/16 00:28:50;;;;;;;7.33;1.10;;;11.40;99.90;;;;;;5077019;28;20450;-66
2022/09/16 00:31:17;;;;;;;6.87;1.60;;;11.40;99.90;;;;;;5076709;28;20826;-66
2022/09/16 00:33:45;;;;;;;1.70;1.00;;;11.40;99.90;;;;;;5076890;28;20449;-66
2022/09/16 00:36:14;;;;;;;2.65;1.25;;;11.40;99.90;;;;;;5076433;28;20968;-66
2022/09/16 00:38:41;;;;;;;8.10;1.53;;;11.40;99.90;;;;;;5076980;28;20204;-65
2022/09/16 00:41:12;;;;;;;2.75;1.00;;;11.40;99.90;;;;;;5076841;28;20439;-66
2022/09/16 00:43:55;;;;;;;3.13;1.10;;;11.40;99.90;;;;;;5077577;28;20185;-67
2022/09/16 00:46:29;;;;;;;3.43;0.83;;;11.50;99.90;;;;;;5077270;28;20455;-67
2022/09/16 00:49:00;;;;;;;2.50;0.80;;;11.50;99.90;;;;;;5077515;28;20434;-67
2022/09/16 00:51:28;;;;;;;3.40;1.07;;;11.50;99.90;;;;;;5077780;28;20436;-67
2022/09/16 00:54:00;;;;;;;1.60;1.20;;;11.50;99.90;;;;;;5076823;28;20462;-66
2022/09/16 00:56:30;;;;;;;1.40;0.90;;;11.50;99.90;;;;;;5077227;28;20479;-66
2022/09/16 00:59:03;;;;;;;2.57;1.23;;;11.50;99.90;;;;;;5076768;28;20443;-67
2022/09/16 01:01:30;;;;;;;4.10;1.27;;;11.50;99.90;;;;;;5076547;28;20450;-67
2022/09/16 01:04:02;;;;;;;2.78;0.88;;;11.50;99.90;;;;;;5076639;28;20447;-67
2022/09/16 01:06:30;;;;;;;2.80;1.00;;;11.40;99.90;;;;;;5076387;28;20225;-67
2022/09/16 01:08:58;;;;;;;3.07;1.40;;;11.50;99.90;;;;;;5077074;28;20474;-68
2022/09/16 01:11:25;;;;;;;2.90;0.80;;;11.40;99.90;;;;;;5076683;28;20451;-66
2022/09/16 01:13:53;;;;;;;4.23;1.30;;;11.40;99.90;;;;;;5076175;28;20591;-67
2022/09/16 01:16:27;;;;;;;3.85;1.15;;;11.40;99.90;;;;;;5076553;28;20489;-66
2022/09/16 01:19:05;;;;;;;4.33;1.27;;;11.40;99.90;;;;;;5076809;28;20192;-65
2022/09/16 01:21:42;;;;;;;3.37;1.00;;;11.50;99.90;;;;;;5076769;28;20439;-66
2022/09/16 01:24:47;;;;;;;3.50;1.20;;;11.50;99.90;;;;;;5076523;28;20434;-65
2022/09/16 01:27:41;;;;;;;2.53;1.20;;;11.60;99.90;;;;;;5068010;28;20516;-66
2022/09/16 01:30:19;;;;;;;3.80;1.20;;;11.60;99.90;;;;;;5075941;28;20427;-66
2022/09/16 01:33:00;;;;;;;2.30;0.80;;;11.70;99.90;;;;;;5075973;28;20485;-67
2022/09/16 01:35:35;;;;;;;3.13;1.43;;;11.70;99.90;;;;;;5076778;28;20487;-67
2022/09/16 01:38:13;;;;;;;3.87;1.20;;;11.80;99.90;;;;;;5075187;28;20435;-67
2022/09/16 01:40:49;;;;;;;3.33;1.40;;;11.80;99.90;;;;;;5076156;28;20518;-67
2022/09/16 01:43:21;;;;;;;2.30;0.90;;;11.80;99.90;;;;;;5076741;28;20427;-65
2022/09/16 01:45:55;;;;;;;6.17;1.20;;;11.80;99.90;;;;;;5076130;28;20971;-66
2022/09/16 01:48:32;;;;;;;2.33;1.20;;;11.90;99.90;;;;;;5075915;28;20442;-66
2022/09/16 01:51:02;;;;;;;3.53;1.13;;;11.90;99.90;;;;;;5075674;28;20428;-67
2022/09/16 01:53:34;;;;;;;3.83;1.00;;;11.90;99.90;;;;;;5075813;28;20431;-66
2022/09/16 01:56:08;;;;;;;2.93;1.47;;;11.90;99.90;;;;;;5075617;28;20483;-65
2022/09/16 01:58:43;;;;;;;2.60;1.30;;;11.90;99.90;;;;;;5076437;28;20782;-66
2022/09/16 02:01:14;;;;;;;3.53;1.60;;;11.90;99.90;;;;;;5075882;28;20431;-66
2022/09/16 02:03:46;;;;;;;3.07;1.17;;;12.00;99.90;;;;;;5075817;28;20436;-67
2022/09/16 02:06:17;;;;;;;2.20;1.30;;;11.90;99.90;;;;;;5076710;28;20478;-64
2022/09/16 02:08:49;;;;;;;4.27;1.30;;;12.00;99.90;;;;;;5076070;28;20432;-67
2022/09/16 02:11:18;;;;;;;3.00;1.23;;;11.90;99.90;;;;;;5075365;28;20427;-66
2022/09/16 02:13:48;;;;;;;2.03;0.87;;;11.90;99.90;;;;;;5075053;28;20447;-67
2022/09/16 02:16:19;;;;;;;2.00;1.23;;;11.90;99.90;;;;;;5075130;28;20500;-66
2022/09/16 02:18:52;;;;;;;3.03;1.00;;;11.90;99.90;;;;;;5075190;28;20534;-67
2022/09/16 02:21:23;;;;;;;3.00;1.20;;;11.90;99.90;;;;;;5075237;28;20427;-66
2022/09/16 02:23:54;;;;;;;6.53;1.23;;;11.90;99.90;;;;;;5074965;28;20429;-66
2022/09/16 02:26:26;;;;;;;2.90;1.57;;;11.90;99.90;;;;;;5076031;28;20471;-66
2022/09/16 02:28:55;;;;;;;2.80;1.13;;;11.90;99.90;;;;;;5075075;28;20434;-66
2022/09/16 02:31:26;;;;;;;6.20;1.10;;;11.90;99.90;;;;;;5074589;28;20447;-66
2022/09/16 02:34:00;;;;;;;4.33;1.10;;;11.90;99.90;;;;;;5074906;28;20423;-66
2022/09/16 02:36:28;;;;;;;3.10;1.30;;;11.90;99.90;;;;;;5074660;28;20487;-65
2022/09/16 02:39:00;;;;;;;3.00;1.00;;;11.90;99.90;;;;;;5074466;28;20938;-66
2022/09/16 02:41:27;;;;;;;1.47;1.00;;;11.90;99.90;;;;;;5074800;28;20446;-66
2022/09/16 02:43:54;;;;;;;2.60;1.20;;;12.00;99.90;;;;;;5074451;28;20815;-66
2022/09/16 02:46:27;;;;;;;2.60;1.30;;;12.00;99.90;;;;;;5074691;28;20459;-66
2022/09/16 02:49:04;;;;;;;1.80;1.33;;;12.00;99.90;;;;;;5073641;28;20432;-66
2022/09/16 02:51:38;;;;;;;5.03;1.50;;;12.00;99.90;;;;;;5074525;28;20787;-66
2022/09/16 02:54:13;;;;;;;2.30;1.03;;;12.00;99.90;;;;;;5074439;28;20427;-66
2022/09/16 02:56:41;;;;;;;3.07;1.20;;;12.00;99.90;;;;;;5074124;28;20984;-66
2022/09/16 02:59:11;;;;;;;4.77;1.20;;;12.00;99.90;;;;;;5074294;28;20454;-66
2022/09/16 03:01:40;;;;;;;3.80;1.40;;;12.00;99.90;;;;;;5074130;28;20443;-65
2022/09/16 03:04:09;;;;;;;6.57;1.23;;;11.90;99.90;;;;;;5074059;28;20454;-66
2022/09/16 03:06:37;;;;;;;7.67;1.97;;;11.90;99.90;;;;;;5075030;28;20479;-65
2022/09/16 03:09:07;;;;;;;4.20;1.20;;;11.90;99.90;;;;;;5074480;28;20883;-66
2022/09/16 03:11:57;;;;;;;1.70;1.20;;;11.90;99.90;;;;;;5074376;28;20451;-66
2022/09/16 03:14:38;;;;;;;2.90;1.30;;;11.90;99.90;;;;;;5073758;28;20415;-67
2022/09/16 03:17:16;;;;;;;4.80;1.53;;;11.90;99.90;;;;;;5073795;28;20479;-66
2022/09/16 03:19:54;;;;;;;3.17;1.10;;;11.90;99.90;;;;;;5073765;28;20431;-66
2022/09/16 03:22:32;;;;;;;1.37;1.10;;;11.90;99.90;;;;;;5074345;28;20833;-66
2022/09/16 03:25:07;;;;;;;1.63;1.40;;;11.80;99.90;;;;;;5074029;28;20427;-66
2022/09/16 03:27:40;;;;;;;5.90;1.50;;;11.80;99.90;;;;;;5073921;28;20431;-66
2022/09/16 03:30:09;;;;;;;5.33;1.40;;;11.80;99.90;;;;;;5073951;28;20438;-66
2022/09/16 03:32:43;;;;;;;7.90;1.40;;;11.80;99.90;;;;;;5073813;28;20454;-66
2022/09/16 03:35:16;;;;;;;6.00;1.20;;;11.80;99.90;;;;;;5073522;28;20482;-66
2022/09/16 03:37:45;;;;;;;5.13;1.10;;;11.80;99.90;;;;;;5073316;28;20428;-66
2022/09/16 03:40:16;;;;;;;1.33;1.00;;;11.70;99.90;;;;;;5073292;28;20451;-66
2022/09/16 03:42:43;;;;;;;4.07;1.63;;;11.70;99.90;;;;;;5073520;28;20447;-67
2022/09/16 03:45:15;;;;;;;4.00;1.30;;;11.70;99.90;;;;;;5073493;28;20831;-66
2022/09/16 03:47:42;;;;;;;4.60;1.63;;;11.70;99.90;;;;;;5073638;28;20439;-67
2022/09/16 03:50:11;;;;;;;2.40;1.30;;;11.70;99.90;;;;;;5073449;28;20449;-66
2022/09/16 03:52:38;;;;;;;2.40;1.43;;;11.70;99.90;;;;;;5073951;28;20467;-66
2022/09/16 03:55:05;;;;;;;3.60;1.60;;;11.70;99.90;;;;;;5073268;28;20475;-66
2022/09/16 03:57:32;;;;;;;1.83;1.47;;;11.70;99.90;;;;;;5073313;28;20881;-66
2022/09/16 03:59:59;;;;;;;4.67;1.10;;;11.70;99.90;;;;;;5072671;28;20811;-67
2022/09/16 04:02:26;;;;;;;3.03;1.20;;;11.80;99.90;;;;;;5073175;28;20459;-66
2022/09/16 04:04:53;;;;;;;2.43;2.23;;;11.80;99.90;;;;;;5073058;28;20443;-66
2022/09/16 04:10:14;;;;;;;3.40;1.20;;;11.80;99.90;;;;;;5091349;28;21084;-66
2022/09/16 04:12:41;;;;;;;6.40;1.70;;;11.80;99.90;;;;;;5091236;28;20443;-67
2022/09/16 04:15:08;;;;;;;1.50;1.30;;;11.90;99.90;;;;;;5092461;28;20462;-68
2022/09/16 04:17:35;;;;;;;2.73;1.47;;;11.90;99.90;;;;;;5083293;28;20530;-68
2022/09/16 04:20:03;;;;;;;3.20;1.30;;;11.90;99.90;;;;;;5091541;28;20958;-67
2022/09/16 04:22:30;;;;;;;4.00;1.53;;;11.90;99.90;;;;;;5094713;28;20481;-68
2022/09/16 04:24:57;;;;;;;4.23;1.30;;;11.90;99.90;;;;;;5093680;28;20450;-68
2022/09/16 04:27:25;;;;;;;1.80;1.20;;;11.90;99.90;;;;;;5091944;28;20443;-67
2022/09/16 04:29:52;;;;;;;3.33;1.80;;;11.90;99.90;;;;;;5074332;28;20479;-68
2022/09/16 04:32:20;;;;;;;7.80;2.10;;;11.90;99.90;;;;;;5070729;28;20447;-67
2022/09/16 04:34:47;;;;;;;3.07;1.70;;;11.90;99.90;;;;;;5095293;28;20446;-66
2022/09/16 04:37:13;;;;;;;2.60;1.33;;;11.90;99.90;;;;;;5080895;28;20443;-66
2022/09/16 04:39:40;;;;;;;2.53;1.70;;;11.80;99.90;;;;;;5092375;28;20434;-67
2022/09/16 04:42:07;;;;;;;4.57;1.50;;;11.90;99.90;;;;;;5090463;28;20447;-68
2022/09/16 04:44:35;;;;;;;1.60;1.33;;;11.90;99.90;;;;;;5093101;28;20454;-67
2022/09/16 04:47:02;;;;;;;3.73;1.90;;;11.90;99.90;;;;;;5092447;28;20474;-67
2022/09/16 04:49:28;;;;;;;5.03;1.20;;;11.90;99.90;;;;;;5088583;28;21000;-68
2022/09/16 04:51:55;;;;;;;2.40;1.70;;;11.90;99.90;;;;;;5093729;28;20518;-68
2022/09/16 04:54:22;;;;;;;2.97;1.50;;;11.90;99.90;;;;;;5083463;28;20447;-67
2022/09/16 04:56:49;;;;;;;4.23;1.20;;;11.90;99.90;;;;;;5093850;28;20458;-66
2022/09/16 04:59:16;;;;;;;3.40;1.97;;;11.90;99.90;;;;;;5090617;28;20515;-68
2022/09/16 05:01:44;;;;;;;3.57;1.60;;;11.90;99.90;;;;;;5074287;28;20448;-67
2022/09/16 05:04:11;;;;;;;3.50;1.67;;;11.90;99.90;;;;;;5079688;28;20451;-67
2022/09/16 05:06:40;;;;;;;5.23;2.47;;;11.90;99.90;;;;;;5081005;28;20470;-68
2022/09/16 05:09:08;;;;;;;4.33;2.00;;;11.90;99.90;;;;;;5073110;28;20486;-67
2022/09/16 05:11:37;;;;;;;3.93;1.80;;;11.90;99.90;;;;;;5071835;28;20443;-66
2022/09/16 05:14:06;;;;;;;8.60;3.30;;;11.90;99.90;;;;;;5070616;28;20576;-65
2022/09/16 05:16:33;;;;;;;4.77;2.00;;;11.90;99.90;;;;;;5070713;28;20520;-65
2022/09/16 05:19:03;;;;;;;5.30;2.00;;;11.80;99.90;;;;;;5070210;28;20518;-67
2022/09/16 05:21:31;;;;;;;5.33;2.30;;;11.80;99.90;;;;;;5058193;28;20500;-67
2022/09/16 05:24:00;;;;;;;3.93;2.27;;;11.80;99.90;;;;;;5058262;28;20459;-67
2022/09/16 05:26:30;;;;;;;3.20;2.33;;;11.80;99.90;;;;;;5057154;28;20523;-66
2022/09/16 05:28:59;;;;;;;3.47;2.57;;;11.80;99.90;;;;;;5056969;28;20496;-66
2022/09/16 05:31:27;;;;;;;5.63;1.83;;;11.90;99.90;;;;;;5057110;28;20451;-65
2022/09/16 05:33:56;;;;;;;2.83;2.10;;;11.90;99.90;;;;;;5057070;28;20452;-67
2022/09/16 05:36:25;;;;;;;3.70;2.40;;;11.90;99.90;;;;;;5057118;28;20539;-66
2022/09/16 05:38:51;;;;;;;3.70;2.70;;;11.90;99.90;;;;;;5056607;28;20448;-66
2022/09/16 05:41:18;;;;;;;3.93;1.80;;;12.00;99.90;;;;;;5055837;28;20459;-67
2022/09/16 05:43:45;;;;;;;8.47;3.20;;;12.00;99.90;;;;;;5056731;28;20444;-66
2022/09/16 05:46:17;;;;;;;5.50;2.40;;;12.00;99.90;;;;;;5056910;28;20464;-67
2022/09/16 05:48:43;;;;;;;12.13;2.13;;;12.10;99.90;;;;;;5057332;28;20559;-66
2022/09/16 05:51:14;;;;;;;3.43;2.33;;;12.10;99.90;;;;;;5057788;28;20448;-65
2022/09/16 05:53:42;;;;;;;6.03;2.27;;;12.10;99.90;;;;;;5057760;28;20432;-66
2022/09/16 05:56:12;;;;;;;4.50;2.53;;;12.10;99.90;;;;;;5058073;28;20579;-66
2022/09/16 05:58:39;;;;;;;4.40;2.20;;;12.10;99.90;;;;;;5058260;28;20444;-67
2022/09/16 06:01:07;;;;;;;6.00;2.20;;;12.10;99.90;;;;;;5057795;28;20455;-66
2022/09/16 06:03:35;;;;;;;5.10;2.00;;;12.10;99.90;;;;;;5057943;28;20451;-66
2022/09/16 06:06:04;;;;;;;2.97;1.67;;;12.10;99.90;;;;;;5057379;28;20471;-66
2022/09/16 06:08:32;;;;;;;6.67;2.23;;;12.10;99.90;;;;;;5057710;28;20459;-67
2022/09/16 06:11:02;;;;;;;3.13;1.90;;;12.20;99.90;;;;;;5056951;28;20468;-67
2022/09/16 06:13:29;;;;;;;2.93;1.70;;;12.30;99.90;;;;;;5061630;28;20920;-66
2022/09/16 06:15:56;;;;;;;7.00;2.13;;;12.40;99.90;;;;;;5066685;28;20470;-67
2022/09/16 06:18:24;;;;;;;5.40;1.50;;;12.60;99.90;;;;;;5065952;28;20441;-68
2022/09/16 06:20:51;;;;;;;5.53;1.73;;;12.70;99.90;;;;;;5060043;28;20787;-67
2022/09/16 06:23:19;;;;;;;5.10;1.97;;;12.70;99.90;;;;;;5056655;28;20450;-67
2022/09/16 06:25:46;;;;;;;2.20;1.50;;;12.70;99.90;;;;;;5059183;28;20452;-66
2022/09/16 06:28:15;;;;;;;2.50;1.53;;;12.70;99.90;;;;;;5064143;28;20459;-67
2022/09/16 06:30:42;;;;;;;3.23;1.83;;;12.70;99.90;;;;;;5064011;28;20490;-68
2022/09/16 06:33:10;;;;;;;2.90;1.50;;;12.60;99.90;;;;;;5060847;28;20452;-68
2022/09/16 06:35:36;;;;;;;2.77;1.70;;;12.60;99.90;;;;;;5056494;28;20526;-66
2022/09/16 06:38:03;;;;;;;4.27;1.40;;;12.60;99.90;;;;;;5055679;28;20448;-67
2022/09/16 06:40:30;;;;;;;3.47;1.03;;;12.50;99.90;;;;;;5055930;28;21014;-67
2022/09/16 06:42:57;;;;;;;3.20;1.57;;;12.50;99.90;;;;;;5055369;28;20452;-66
2022/09/16 06:45:25;;;;;;;2.07;1.27;;;12.50;99.90;;;;;;5056033;28;20494;-66
2022/09/16 06:47:52;;;;;;;4.00;1.40;;;12.50;99.90;;;;;;5054975;28;20452;-66
2022/09/16 06:50:18;;;;;;;3.07;1.40;;;12.60;99.90;;;;;;5054359;28;20479;-67
2022/09/16 06:52:49;;;;;;;2.40;1.17;;;12.60;99.90;;;;;;5055189;28;20449;-66
2022/09/16 06:55:16;;;;;;;6.77;1.30;;;12.60;99.90;;;;;;5056420;28;20455;-66
2022/09/16 06:57:43;;;;;;;4.00;1.00;;;12.60;99.90;;;;;;5057530;28;20452;-67
2022/09/16 07:00:12;;;;;;;1.63;0.90;;;12.60;99.90;;;;;;5059574;28;20446;-67
2022/09/16 07:02:40;;;;;;;2.20;1.20;;;12.60;99.90;;;;;;5056220;28;20503;-67
2022/09/16 07:05:07;;;;;;;1.50;1.00;;;12.70;99.90;;;;;;5055204;28;20543;-67
2022/09/16 07:07:35;;;;;;;4.30;1.60;;;12.70;99.90;;;;;;5054301;28;20444;-66
2022/09/16 07:10:02;;;;;;;8.27;1.50;;;12.70;99.90;;;;;;5054198;28;20582;-67
2022/09/16 07:12:29;;;;;;;2.43;1.20;;;12.80;99.90;;;;;;5054791;28;20448;-67
2022/09/16 07:14:55;;;;;;;2.37;1.60;;;12.90;99.90;;;;;;5053796;28;20444;-67
2022/09/16 07:17:26;;;;;;;3.70;1.13;;;13.00;99.90;;;;;;5053910;28;20448;-66
2022/09/16 07:19:54;;;;;;;2.20;1.10;;;13.00;99.90;;;;;;5054359;28;20444;-66
2022/09/16 07:22:20;;;;;;;2.73;1.10;;;13.00;99.90;;;;;;5055359;28;20444;-66
2022/09/16 07:24:47;;;;;;;3.93;1.10;;;13.10;99.90;;;;;;5054371;28;20448;-67
2022/09/16 07:27:14;;;;;;;2.40;0.90;;;13.10;99.90;;;;;;5057082;28;20808;-67
2022/09/16 07:29:41;;;;;;;5.40;1.37;;;13.10;99.90;;;;;;5056460;28;20480;-68
2022/09/16 07:32:08;;;;;;;1.60;1.07;;;13.20;99.90;;;;;;5056382;28;20539;-68
2022/09/16 07:34:35;;;;;;;3.47;1.37;;;13.30;99.90;;;;;;5055895;28;20437;-68
2022/09/16 07:37:03;;;;;;;2.73;1.30;;;13.40;99.90;;;;;;5053895;28;20468;-67
2022/09/16 07:39:30;;;;;;;3.67;2.00;;;13.50;99.90;;;;;;5053755;28;20448;-68
2022/09/16 07:41:56;;;;;;;5.00;1.57;;;13.50;99.90;;;;;;5053951;28;20444;-68
2022/09/16 07:44:24;;;;;;;4.27;1.60;;;13.60;99.90;;;;;;5053818;28;20490;-68
2022/09/16 07:46:51;;;;;;;3.20;1.03;;;13.60;99.90;;;;;;5053688;28;20468;-69
2022/09/16 07:49:17;;;;;;;2.80;1.20;;;13.60;99.90;;;;;;5053882;28;20476;-67
2022/09/16 07:51:45;;;;;;;4.17;1.10;;;13.70;99.90;;;;;;5053863;28;20448;-66
2022/09/16 07:54:15;;;;;;;3.93;1.10;;;13.80;99.90;;;;;;5059185;28;20448;-67
2022/09/16 07:56:42;;;;;;;4.27;1.70;;;13.80;99.50;;;;;;5058454;28;20464;-68
2022/09/16 07:59:12;;;;;;;2.30;0.87;;;13.90;99.20;;;;;;5057161;28;20831;-67
2022/09/16 08:01:39;;;;;;;4.83;1.73;;;14.00;98.90;;;;;;5059796;28;20771;-68
2022/09/16 08:04:06;;;;;;;2.93;1.10;;;14.00;98.30;;;;;;5055386;28;20448;-68
2022/09/16 08:06:37;;;;;;;5.40;1.20;;;14.00;97.80;;;;;;5058542;28;20531;-68
2022/09/16 08:09:04;;;;;;;2.93;1.43;;;14.10;97.60;;;;;;5060460;28;20466;-68
2022/09/16 08:11:32;;;;;;;3.20;0.90;;;14.20;97.10;;;;;;5057907;28;20448;-68
2022/09/16 08:13:59;;;;;;;2.13;1.13;;;14.30;96.90;;;;;;5057384;28;20828;-67
2022/09/16 08:16:26;;;;;;;1.50;1.13;;;14.50;96.40;;;;;;5057183;28;20466;-68
2022/09/16 08:18:56;;;;;;;2.03;1.10;;;14.50;95.90;;;;;;5056108;28;20444;-68
2022/09/16 08:21:25;;;;;;;1.37;0.97;;;14.50;95.70;;;;;;5061422;28;20449;-69
2022/09/16 08:23:52;;;;;;;4.87;1.23;;;14.50;95.50;;;;;;5060448;28;20448;-68
2022/09/16 08:26:20;;;;;;;2.83;1.00;;;14.60;95.20;;;;;;5054352;28;20971;-68
2022/09/16 08:28:49;;;;;;;4.17;1.00;;;14.50;94.80;;;;;;5054818;28;20543;-67
2022/09/16 08:31:16;;;;;;;6.53;1.10;;;14.50;95.10;;;;;;5054997;28;20566;-67
2022/09/16 08:33:44;;;;;;;1.87;1.00;;;14.70;94.60;;;;;;5054191;28;20448;-68
2022/09/16 08:36:14;;;;;;;1.50;1.10;;;14.80;93.90;;;;;;5053995;28;20468;-68
2022/09/16 08:38:42;;;;;;;2.90;1.10;;;14.80;93.50;;;;;;5053837;28;20441;-69
2022/09/16 08:41:26;;;;;;;5.53;1.30;;;15.00;93.10;;;;;;5054051;28;20447;-67
2022/09/16 08:44:03;;;;;;;7.50;1.90;;;15.10;92.40;;;;;;5053172;28;20912;-68
2022/09/16 08:46:35;;;;;;;1.73;0.90;;;15.10;91.70;;;;;;5054078;28;20468;-67
2022/09/16 08:49:15;;;;;;;4.50;1.63;;;15.10;91.40;;;;;;5053321;28;20436;-67
2022/09/16 08:51:43;;;;;;;2.53;1.20;;;15.10;91.10;;;;;;5053104;28;20421;-66
2022/09/16 08:54:13;;;;;;;5.17;1.40;;;15.30;91.10;;;;;;5052873;28;20455;-68
2022/09/16 08:56:40;;;;;;;8.43;1.30;;;15.50;90.50;;;;;;5055825;28;20979;-67
2022/09/16 08:59:18;;;;;;;4.10;0.90;;;15.80;89.20;;;;;;5056160;28;20450;-68
2022/09/16 09:01:50;;;;;;;2.87;1.20;;;16.00;84.90;;;;;;5057425;28;20424;-67
2022/09/16 09:04:16;;;;;;;9.47;1.97;;;16.10;82.70;;;;;;5057658;28;20424;-68
2022/09/16 09:06:54;;;;;;;2.67;1.10;;;16.20;79.90;;;;;;5072612;22;20447;-61
2022/09/16 09:09:40;;;;;;;3.80;1.00;;;16.10;78.30;;;;;;5035929;28;20453;-62
2022/09/16 09:12:14;;;;;;;5.70;1.47;;;16.10;78.20;;;;;;5036697;28;20495;-62
2022/09/16 09:15:02;;;;;;;4.43;1.20;;;16.10;76.90;;;;;;5035641;28;20437;-62
2022/09/16 09:17:41;;;;;;;2.50;1.13;;;16.10;76.10;;;;;;5036410;28;20468;-61
2022/09/16 09:20:16;;;;;;;4.93;1.30;;;16.20;75.00;;;;;;5039711;28;20425;-61
2022/09/16 09:22:57;;;;;;;2.50;1.07;;;16.30;74.40;;;;;;5041586;28;20455;-60
2022/09/16 09:25:34;;;;;;;7.33;1.57;;;16.40;72.30;;;;;;5043300;28;20482;-60
2022/09/16 09:28:13;;;;;;;9.57;1.37;;;16.40;71.20;;;;;;5039674;28;20476;-60
2022/09/16 09:30:52;;;;;;;2.30;0.80;;;16.40;70.50;;;;;;5044127;28;20563;-60
2022/09/16 09:33:27;;;;;;;2.30;0.90;;;16.40;69.80;;;;;;5038663;28;20438;-61
2022/09/16 09:36:12;;;;;;;5.67;1.20;;;16.40;68.50;;;;;;5036614;28;20520;-60
2022/09/16 09:39:03;;;;;;;3.13;1.03;;;16.40;68.00;;;;;;5038972;28;20469;-60
2022/09/16 09:41:34;;;;;;;3.40;1.07;;;16.40;68.40;;;;;;5037933;28;20432;-60
2022/09/16 09:44:11;;;;;;;3.70;0.90;;;16.30;68.80;;;;;;5038635;28;20425;-61
2022/09/16 09:46:44;;;;;;;7.63;1.40;;;16.10;69.10;;;;;;5036465;28;20429;-60
2022/09/16 09:49:14;;;;;;;16.73;2.30;;;16.00;69.30;;;;;;5035985;28;20437;-60
2022/09/16 09:51:48;;;;;;;9.30;1.00;;;16.00;69.00;;;;;;5038561;28;20489;-59
2022/09/16 09:54:25;;;;;;;3.27;1.10;;;16.20;68.70;;;;;;5036319;28;20440;-61
2022/09/16 09:56:55;;;;;;;1.80;0.83;;;16.50;67.60;;;;;;5036429;28;20555;-59
2022/09/16 09:59:29;;;;;;;4.07;1.23;;;16.80;64.80;;;;;;5036716;28;20445;-60
2022/09/16 10:01:59;;;;;;;3.63;1.10;;;17.00;63.70;;;;;;5036173;28;20429;-58
2022/09/16 10:04:26;;;;;;;1.80;0.90;;;17.10;62.60;;;;;;5035959;28;20449;-61
2022/09/16 10:06:56;;;;;;;4.80;1.40;;;17.20;61.60;;;;;;5035202;28;21019;-61
2022/09/16 10:09:23;;;;;;;2.20;0.80;;;17.10;60.70;;;;;;5036344;28;20449;-61
2022/09/16 10:11:53;;;;;;;4.10;1.20;;;17.10;60.70;;;;;;5036861;28;20608;-61
2022/09/16 10:14:26;;;;;;;3.30;1.10;;;17.30;60.50;;;;;;5035294;28;20483;-59
2022/09/16 10:16:54;;;;;;;3.33;0.90;;;17.40;60.20;;;;;;5036052;28;20469;-61
2022/09/16 10:19:25;;;;;;;3.17;1.67;;;17.30;59.60;;;;;;5035564;28;20449;-60
2022/09/16 10:21:54;;;;;;;3.50;1.23;;;17.40;59.30;;;;;;5035210;28;20897;-60
2022/09/16 10:24:32;;;;;;;2.90;0.97;;;17.40;58.60;;;;;;5035432;28;20481;-61
2022/09/16 10:27:00;;;;;;;6.07;1.33;;;17.40;58.50;;;;;;5035070;28;20465;-61
2022/09/16 10:29:28;;;;;;;5.30;1.40;;;17.20;58.30;;;;;;5036719;28;20441;-61
2022/09/16 10:31:58;;;;;;;2.70;0.93;;;17.10;58.20;;;;;;5035741;28;20488;-61
2022/09/16 10:34:30;;;;;;;6.63;1.07;;;17.00;58.10;;;;;;5035686;28;20448;-60
2022/09/16 10:37:03;;;;;;;3.23;1.23;;;17.00;57.90;;;;;;5036127;28;20475;-60
2022/09/16 10:39:31;;;;;;;4.10;1.30;;;17.10;57.60;;;;;;5035774;28;20444;-60
2022/09/16 10:41:59;;;;;;;4.80;2.40;;;17.20;57.10;;;;;;5037603;28;20483;-61
2022/09/16 10:44:28;;;;;;;4.70;0.97;;;17.10;56.80;;;;;;5036098;28;20453;-60
2022/09/16 10:47:00;;;;;;;3.37;1.10;;;16.80;57.00;;;;;;5036475;28;20465;-63
2022/09/16 10:49:40;;;;;;;4.80;1.10;;;16.60;57.50;;;;;;5038396;28;20433;-60
2022/09/16 10:52:09;;;;;;;5.80;1.13;;;16.40;57.40;;;;;;5039444;28;20572;-61
2022/09/16 10:54:35;;;;;;;5.50;1.43;;;16.40;57.20;;;;;;5037033;28;20522;-59
2022/09/16 10:57:02;;;;;;;5.23;1.03;;;16.50;56.70;;;;;;5036456;28;20548;-61
2022/09/16 10:59:29;;;;;;;2.73;1.10;;;16.80;55.80;;;;;;5038084;28;20456;-60
2022/09/16 11:02:17;;;;;;;4.07;0.90;;;17.00;54.90;;;;;;5035876;28;20437;-62
2022/09/16 11:05:00;;;;;;;3.97;1.20;;;17.10;54.30;;;;;;5035458;28;20436;-61
2022/09/16 11:07:37;;;;;;;2.37;1.20;;;17.30;53.80;;;;;;5035550;28;20500;-60
2022/09/16 11:10:14;;;;;;;2.70;0.90;;;17.40;53.00;;;;;;5036429;28;20430;-60
2022/09/16 11:13:04;;;;;;;8.40;1.50;;;17.20;52.50;;;;;;5036555;28;20433;-61
2022/09/16 11:15:41;;;;;;;3.03;1.37;;;17.20;52.90;;;;;;5024358;28;20457;-61
2022/09/16 11:18:25;;;;;;;4.10;1.23;;;17.40;52.80;;;;;;5034076;28;20461;-59
2022/09/16 11:21:09;;;;;;;3.30;0.77;;;17.70;52.20;;;;;;5040090;28;20413;-61
2022/09/16 11:24:03;;;;;;;3.10;1.10;;;17.80;51.60;;;;;;5033758;28;20514;-61
2022/09/16 11:26:39;;;;;;;7.30;1.27;;;17.90;51.40;;;;;;5028998;28;20971;-60
2022/09/16 11:29:27;;;;;;;3.03;1.00;;;18.00;51.10;;;;;;5034116;28;20425;-60
2022/09/16 11:32:04;;;;;;;3.83;0.90;;;17.90;51.00;;;;;;5034289;28;20488;-60
2022/09/16 11:34:45;;;;;;;3.40;1.63;;;18.00;51.30;;;;;;5034171;28;20433;-60
2022/09/16 11:37:20;;;;;;;1.93;0.90;;;18.20;51.60;;;;;;5033621;28;20652;-62
2022/09/16 11:40:13;;;;;;;5.30;1.63;;;18.40;51.50;;;;;;5036235;28;20809;-61
2022/09/16 11:42:43;;;;;;;5.60;1.10;;;18.60;51.30;;;;;;5040383;28;20455;-62
2022/09/16 11:45:29;;;;;;;3.43;1.50;;;18.60;50.70;;;;;;5039454;28;20901;-61
2022/09/16 11:48:15;;;;;;;5.53;1.40;;;18.60;51.00;;;;;;5034711;28;20469;-61
2022/09/16 11:50:48;;;;;;;3.20;1.10;;;18.50;51.30;;;;;;5035055;28;20475;-62
2022/09/16 11:53:42;;;;;;;3.80;1.20;;;18.40;51.40;;;;;;5035092;28;20483;-61
2022/09/16 11:56:15;;;;;;;1.70;1.03;;;18.10;51.80;;;;;;5035773;28;20479;-61
2022/09/16 11:58:46;;;;;;;8.10;1.40;;;17.60;53.20;;;;;;5034762;28;20553;-61
2022/09/16 12:01:26;;;;;;;3.47;0.80;;;17.20;55.00;;;;;;5035558;28;20437;-61
2022/09/16 12:03:59;;;;;;;3.27;1.13;;;16.80;56.60;;;;;;5034440;28;20913;-61
2022/09/16 12:06:31;;;;;;;2.70;1.00;;;16.30;57.90;;;;;;5038576;28;20459;-61
2022/09/16 12:09:05;;;;;;;3.33;1.30;;;16.20;58.70;;;;;;5034917;28;20463;-63
2022/09/16 12:11:37;;;;;;;6.63;1.50;;;16.10;59.10;;;;;;5034817;28;20469;-62
2022/09/16 12:14:10;;;;;;;4.30;1.60;;;16.10;59.40;;;;;;5034139;28;20432;-63
2022/09/16 12:16:45;;;;;;;6.40;1.80;;;16.30;59.60;;;;;;5034670;28;20437;-61
2022/09/16 12:19:18;;;;;;;5.23;1.20;;;16.40;59.60;;;;;;5035097;28;20479;-60
2022/09/16 12:21:49;;;;;;;5.00;1.77;;;16.60;59.30;;;;;;5034094;28;20517;-63
2022/09/16 12:24:24;;;;;;;4.03;0.97;;;16.70;58.70;;;;;;5034637;28;20434;-61
2022/09/16 12:26:57;;;;;;;3.33;0.80;;;16.80;58.60;;;;;;5033922;28;20439;-61
2022/09/16 12:29:33;;;;;;;6.70;1.23;;;17.00;58.30;;;;;;5033086;28;20516;-61
2022/09/16 12:32:05;;;;;;;2.30;1.07;;;17.10;57.80;;;;;;5037986;28;20461;-61
2022/09/16 12:34:38;;;;;;;6.93;2.00;;;17.10;57.30;;;;;;5037896;28;20433;-60
2022/09/16 12:37:23;;;;;;;3.33;1.03;;;17.20;57.10;;;;;;5043184;28;20488;-61
2022/09/16 12:39:52;;;;;;;2.30;1.10;;;17.30;56.90;;;;;;5037658;28;20778;-60
2022/09/16 12:42:52;;;;;;;3.90;1.60;;;17.40;56.30;;;;;;5038188;28;20444;-59
2022/09/16 12:45:35;;;;;;;4.60;1.27;;;17.30;55.30;;;;;;5034785;28;20941;-61
2022/09/16 12:48:23;;;;;;;6.70;1.97;;;17.20;55.50;;;;;;5037924;28;20469;-60
2022/09/16 12:51:09;;;;;;;6.60;1.23;;;17.00;55.30;;;;;;5038441;28;20475;-60
2022/09/16 12:54:18;;;;;;;3.43;1.13;;;16.70;57.50;;;;;;5037851;28;20428;-60
2022/09/16 12:57:12;;;;;;;4.10;1.27;;;16.20;59.30;;;;;;5039609;28;20808;-61
2022/09/16 13:00:16;;;;;;;5.80;1.20;;;15.90;60.50;;;;;;5039314;28;20453;-59
2022/09/16 13:02:46;;;;;;;5.17;1.10;;;15.80;60.70;;;;;;5037097;28;20443;-60
2022/09/16 13:05:20;;;;;;;4.77;2.20;;;15.80;60.70;;;;;;5037449;28;20433;-60
2022/09/16 13:07:51;;;;;;;9.17;1.70;;;15.90;59.90;;;;;;5037145;28;20472;-59
2022/09/16 13:10:20;;;;;;;2.53;1.03;;;16.00;58.40;;;;;;5037095;28;20437;-60
2022/09/16 13:12:53;;;;;;;7.47;1.17;;;16.20;57.40;;;;;;5036625;28;20509;-60
2022/09/16 13:15:26;;;;;;;2.20;1.10;;;16.30;56.20;;;;;;5036656;28;20437;-59